sensor_id;sensor_type;location;lat;lon;timestamp;temperature;humidity
18041;DHT22;9145;48.588;9.250;2022-08-21T00:00:22;17.50;99.90
18041;DHT22;9145;48.588;9.250;2022-08-21T00:02:52;17.50;99.90
18041;DHT22;9145;48.588;9.250;2022-08-21T00:05:20;17.50;99.90
18041;DHT22;9145;48.588;9.250;2022-08-21T00:07:46;17.50;99.90
18041;DHT22;9145;48.588;9.250;2022-08-21T00:10:15;17.50;99.90
18041;DHT22;9145;48.588;9.250;2022-08-21T00:12:43;17.40;99.90
18041;DHT22;9145;48.588;9.250;2022-08-21T00:15:12;17.40;99.90
18041;DHT22;9145;48.588;9.250;2022-08-21T00:17:41;17.40;99.90
18041;DHT22;9145;48.588;9.250;2022-08-21T00:20:10;17.30;99.90
18041;DHT22;9145;48.588;9.250;2022-08-21T00:22:37;17.30;99.90
18041;DHT22;9145;48.588;9.250;2022-08-21T00:25:06;17.30;99.90
18041;DHT22;9145;48.588;9.250;2022-08-21T00:27:35;17.30;99.90
18041;DHT22;9145;48.588;9.250;2022-08-21T00:30:04;17.30;99.90
18041;DHT22;9145;48.588;9.250;2022-08-21T00:32:31;17.30;99.90
18041;DHT22;9145;48.588;9.250;2022-08-21T00:34:59;17.30;99.90
18041;DHT22;9145;48.588;9.250;2022-08-21T00:37:26;17.30;99.90
18041;DHT22;9145;48.588;9.250;2022-08-21T00:39:52;17.30;99.90
18041;DHT22;9145;48.588;9.250;2022-08-21T00:42:19;17.30;99.90
18041;DHT22;9145;48.588;9.250;2022-08-21T00:44:49;17.30;99.90
18041;DHT22;9145;48.588;9.250;2022-08-21T00:47:17;17.20;99.90
18041;DHT22;9145;48.588;9.250;2022-08-21T00:49:44;17.20;99.90
18041;DHT22;9145;48.588;9.250;2022-08-21T00:52:15;17.20;99.90
18041;DHT22;9145;48.588;9.250;2022-08-21T00:54:44;17.20;99.90
18041;DHT22;9145;48.588;9.250;2022-08-21T00:57:15;17.20;99.90
18041;DHT22;9145;48.588;9.250;2022-08-21T00:59:45;17.10;99.90
18041;DHT22;9145;48.588;9.250;2022-08-21T01:02:16;17.10;99.90
18041;DHT22;9145;48.588;9.250;2022-08-21T01:04:43;17.10;99.90
18041;DHT22;9145;48.588;9.250;2022-08-21T01:07:11;17.00;99.90
18041;DHT22;9145;48.588;9.250;2022-08-21T01:09:38;17.00;99.90
18041;DHT22;9145;48.588;9.250;2022-08-21T01:12:06;16.90;99.90
18041;DHT22;9145;48.588;9.250;2022-08-21T01:14:33;16.90;99.90
18041;DHT22;9145;48.588;9.250;2022-08-21T01:17:01;16.80;99.90
18041;DHT22;9145;48.588;9.250;2022-08-21T01:19:30;16.80;99.90
18041;DHT22;9145;48.588;9.250;2022-08-21T01:21:59;16.80;99.90
18041;DHT22;9145;48.588;9.250;2022-08-21T01:24:26;16.80;99.90
18041;DHT22;9145;48.588;9.250;2022-08-21T01:26:53;16.80;99.90
18041;DHT22;9145;48.588;9.250;2022-08-21T01:29:29;16.80;99.90
18041;DHT22;9145;48.588;9.250;2022-08-21T01:31:57;16.70;99.90
18041;DHT22;9145;48.588;9.250;2022-08-21T01:34:24;16.70;99.90
18041;DHT22;9145;48.588;9.250;2022-08-21T01:36:51;16.60;99.90
18041;DHT22;9145;48.588;9.250;2022-08-21T01:39:20;16.60;99.90
18041;DHT22;9145;48.588;9.250;2022-08-21T01:41:47;16.60;99.90
18041;DHT22;9145;48.588;9.250;2022-08-21T01:44:13;16.60;99.90
18041;DHT22;9145;48.588;9.250;2022-08-21T01:46:40;16.60;99.90
18041;DHT22;9145;48.588;9.250;2022-08-21T01:49:08;16.50;99.90
18041;DHT22;9145;48.588;9.250;2022-08-21T01:51:34;16.50;99.90
18041;DHT22;9145;48.588;9.250;2022-08-21T01:54:02;16.50;99.90
18041;DHT22;9145;48.588;9.250;2022-08-21T01:56:36;16.50;99.90
18041;DHT22;9145;48.588;9.250;2022-08-21T01:59:03;16.50;99.90
18041;DHT22;9145;48.588;9.250;2022-08-21T02:01:29;16.40;99.90
18041;DHT22;9145;48.588;9.250;2022-08-21T02:03:56;16.40;99.90
18041;DHT22;9145;48.588;9.250;2022-08-21T02:06:26;16.40;99.90
18041;DHT22;9145;48.588;9.250;2022-08-21T02:08:53;16.30;99.90
18041;DHT22;9145;48.588;9.250;2022-08-21T02:11:20;16.30;99.90
18041;DHT22;9145;48.588;9.250;2022-08-21T02:13:48;16.30;99.90
18041;DHT22;9145;48.588;9.250;2022-08-21T02:16:15;16.40;99.90
18041;DHT22;9145;48.588;9.250;2022-08-21T02:18:42;16.40;99.90
18041;DHT22;9145;48.588;9.250;2022-08-21T02:21:09;16.40;99.90
18041;DHT22;9145;48.588;9.250;2022-08-21T02:23:36;16.30;99.90
18041;DHT22;9145;48.588;9.250;2022-08-21T02:26:05;16.30;99.90
18041;DHT22;9145;48.588;9.250;2022-08-21T02:28:33;16.30;99.90
18041;DHT22;9145;48.588;9.250;2022-08-21T02:31:02;16.30;99.90
18041;DHT22;9145;48.588;9.250;2022-08-21T02:33:29;16.30;99.90
18041;DHT22;9145;48.588;9.250;2022-08-21T02:35:56;16.20;99.90
18041;DHT22;9145;48.588;9.250;2022-08-21T02:38:26;16.20;99.90
18041;DHT22;9145;48.588;9.250;2022-08-21T02:40:54;16.20;99.90
18041;DHT22;9145;48.588;9.250;2022-08-21T02:43:23;16.00;99.90
18041;DHT22;9145;48.588;9.250;2022-08-21T02:45:52;15.90;99.90
18041;DHT22;9145;48.588;9.250;2022-08-21T02:48:24;15.90;99.90
18041;DHT22;9145;48.588;9.250;2022-08-21T02:50:53;15.90;99.90
18041;DHT22;9145;48.588;9.250;2022-08-21T02:53:20;15.90;99.90
18041;DHT22;9145;48.588;9.250;2022-08-21T02:55:49;15.80;99.90
18041;DHT22;9145;48.588;9.250;2022-08-21T02:58:18;15.80;99.90
18041;DHT22;9145;48.588;9.250;2022-08-21T03:00:45;15.80;99.90
18041;DHT22;9145;48.588;9.250;2022-08-21T03:03:13;15.90;99.90
18041;DHT22;9145;48.588;9.250;2022-08-21T03:05:42;15.90;99.90
18041;DHT22;9145;48.588;9.250;2022-08-21T03:08:11;15.90;99.90
18041;DHT22;9145;48.588;9.250;2022-08-21T03:10:41;15.90;99.90
18041;DHT22;9145;48.588;9.250;2022-08-21T03:13:08;15.90;99.90
18041;DHT22;9145;48.588;9.250;2022-08-21T03:15:36;15.90;99.90
18041;DHT22;9145;48.588;9.250;2022-08-21T03:18:04;15.80;99.90
18041;DHT22;9145;48.588;9.250;2022-08-21T03:20:32;15.80;99.90
18041;DHT22;9145;48.588;9.250;2022-08-21T03:23:02;15.80;99.90
18041;DHT22;9145;48.588;9.250;2022-08-21T03:25:30;15.70;99.90
18041;DHT22;9145;48.588;9.250;2022-08-21T03:27:57;15.70;99.90
18041;DHT22;9145;48.588;9.250;2022-08-21T03:30:24;15.70;99.90
18041;DHT22;9145;48.588;9.250;2022-08-21T03:32:51;15.60;99.90
18041;DHT22;9145;48.588;9.250;2022-08-21T03:35:19;15.60;99.90
18041;DHT22;9145;48.588;9.250;2022-08-21T03:37:46;15.60;99.90
18041;DHT22;9145;48.588;9.250;2022-08-21T03:40:17;15.60;99.90
18041;DHT22;9145;48.588;9.250;2022-08-21T03:42:44;15.60;99.90
18041;DHT22;9145;48.588;9.250;2022-08-21T03:45:13;15.50;99.90
18041;DHT22;9145;48.588;9.250;2022-08-21T03:47:50;15.40;99.90
18041;DHT22;9145;48.588;9.250;2022-08-21T03:50:17;15.40;99.90
18041;DHT22;9145;48.588;9.250;2022-08-21T03:52:44;15.30;99.90
18041;DHT22;9145;48.588;9.250;2022-08-21T03:55:11;15.30;99.90
18041;DHT22;9145;48.588;9.250;2022-08-21T03:57:39;15.30;99.90
18041;DHT22;9145;48.588;9.250;2022-08-21T04:00:07;15.30;99.90
18041;DHT22;9145;48.588;9.250;2022-08-21T04:02:36;15.30;99.90
18041;DHT22;9145;48.588;9.250;2022-08-21T04:05:04;15.40;99.90
18041;DHT22;9145;48.588;9.250;2022-08-21T04:07:32;15.30;99.90
18041;DHT22;9145;48.588;9.250;2022-08-21T04:09:58;15.30;99.90
18041;DHT22;9145;48.588;9.250;2022-08-21T04:12:25;15.30;99.90
18041;DHT22;9145;48.588;9.250;2022-08-21T04:14:53;15.40;99.90
18041;DHT22;9145;48.588;9.250;2022-08-21T04:17:20;15.30;99.90
18041;DHT22;9145;48.588;9.250;2022-08-21T04:19:47;15.30;99.90
18041;DHT22;9145;48.588;9.250;2022-08-21T04:22:15;15.20;99.90
18041;DHT22;9145;48.588;9.250;2022-08-21T04:24:42;15.20;99.90
18041;DHT22;9145;48.588;9.250;2022-08-21T04:27:08;15.10;99.90
18041;DHT22;9145;48.588;9.250;2022-08-21T04:29:35;15.00;99.90
18041;DHT22;9145;48.588;9.250;2022-08-21T04:32:04;15.00;99.90
18041;DHT22;9145;48.588;9.250;2022-08-21T04:34:31;15.00;99.90
18041;DHT22;9145;48.588;9.250;2022-08-21T04:36:58;15.00;99.90
18041;DHT22;9145;48.588;9.250;2022-08-21T04:39:24;15.00;99.90
18041;DHT22;9145;48.588;9.250;2022-08-21T04:41:51;15.00;99.90
18041;DHT22;9145;48.588;9.250;2022-08-21T04:44:18;15.00;99.90
18041;DHT22;9145;48.588;9.250;2022-08-21T04:46:45;15.00;99.90
18041;DHT22;9145;48.588;9.250;2022-08-21T04:49:13;15.00;99.90
18041;DHT22;9145;48.588;9.250;2022-08-21T04:51:40;15.00;99.90
18041;DHT22;9145;48.588;9.250;2022-08-21T04:54:10;15.10;99.90
18041;DHT22;9145;48.588;9.250;2022-08-21T04:56:41;15.10;99.90
18041;DHT22;9145;48.588;9.250;2022-08-21T04:59:14;15.10;99.90
18041;DHT22;9145;48.588;9.250;2022-08-21T05:01:43;15.10;99.90
18041;DHT22;9145;48.588;9.250;2022-08-21T05:04:15;15.10;99.90
18041;DHT22;9145;48.588;9.250;2022-08-21T05:06:44;15.10;99.90
18041;DHT22;9145;48.588;9.250;2022-08-21T05:09:15;15.10;99.90
18041;DHT22;9145;48.588;9.250;2022-08-21T05:11:43;15.20;99.90
18041;DHT22;9145;48.588;9.250;2022-08-21T05:14:10;15.20;99.90
18041;DHT22;9145;48.588;9.250;2022-08-21T05:16:37;15.10;99.90
18041;DHT22;9145;48.588;9.250;2022-08-21T05:19:04;15.00;99.90
18041;DHT22;9145;48.588;9.250;2022-08-21T05:21:33;15.00;99.90
18041;DHT22;9145;48.588;9.250;2022-08-21T05:24:01;15.00;99.90
18041;DHT22;9145;48.588;9.250;2022-08-21T05:26:27;15.00;99.90
18041;DHT22;9145;48.588;9.250;2022-08-21T05:28:55;15.00;99.90
18041;DHT22;9145;48.588;9.250;2022-08-21T05:31:22;15.00;99.90
18041;DHT22;9145;48.588;9.250;2022-08-21T05:33:49;15.10;99.90
18041;DHT22;9145;48.588;9.250;2022-08-21T05:36:16;15.10;99.90
18041;DHT22;9145;48.588;9.250;2022-08-21T05:38:45;15.10;99.90
18041;DHT22;9145;48.588;9.250;2022-08-21T05:41:12;15.10;99.90
18041;DHT22;9145;48.588;9.250;2022-08-21T05:43:39;15.20;99.90
18041;DHT22;9145;48.588;9.250;2022-08-21T05:46:07;15.30;99.90
18041;DHT22;9145;48.588;9.250;2022-08-21T05:48:35;15.40;99.90
18041;DHT22;9145;48.588;9.250;2022-08-21T05:51:05;15.50;99.90
18041;DHT22;9145;48.588;9.250;2022-08-21T05:53:32;15.50;99.90
18041;DHT22;9145;48.588;9.250;2022-08-21T05:56:01;15.50;99.90
18041;DHT22;9145;48.588;9.250;2022-08-21T05:58:30;15.40;99.90
18041;DHT22;9145;48.588;9.250;2022-08-21T06:00:59;15.50;99.90
18041;DHT22;9145;48.588;9.250;2022-08-21T06:03:28;15.60;99.90
18041;DHT22;9145;48.588;9.250;2022-08-21T06:05:55;15.60;99.90
18041;DHT22;9145;48.588;9.250;2022-08-21T06:08:23;15.70;99.90
18041;DHT22;9145;48.588;9.250;2022-08-21T06:10:51;15.80;99.90
18041;DHT22;9145;48.588;9.250;2022-08-21T06:13:21;15.80;99.90
18041;DHT22;9145;48.588;9.250;2022-08-21T06:15:48;15.90;99.90
18041;DHT22;9145;48.588;9.250;2022-08-21T06:18:16;16.00;99.90
18041;DHT22;9145;48.588;9.250;2022-08-21T06:20:43;16.00;99.90
18041;DHT22;9145;48.588;9.250;2022-08-21T06:23:10;16.10;99.90
18041;DHT22;9145;48.588;9.250;2022-08-21T06:25:38;16.10;99.90
18041;DHT22;9145;48.588;9.250;2022-08-21T06:28:07;16.20;99.90
18041;DHT22;9145;48.588;9.250;2022-08-21T06:30:37;16.30;99.90
18041;DHT22;9145;48.588;9.250;2022-08-21T06:33:04;16.40;99.90
18041;DHT22;9145;48.588;9.250;2022-08-21T06:35:31;16.40;99.90
18041;DHT22;9145;48.588;9.250;2022-08-21T06:37:59;16.50;99.90
18041;DHT22;9145;48.588;9.250;2022-08-21T06:40:26;16.50;99.90
18041;DHT22;9145;48.588;9.250;2022-08-21T06:42:53;16.60;99.90
18041;DHT22;9145;48.588;9.250;2022-08-21T06:45:20;16.60;99.90
18041;DHT22;9145;48.588;9.250;2022-08-21T06:47:49;16.70;99.90
18041;DHT22;9145;48.588;9.250;2022-08-21T06:50:15;16.70;99.90
18041;DHT22;9145;48.588;9.250;2022-08-21T06:52:42;16.70;99.90
18041;DHT22;9145;48.588;9.250;2022-08-21T06:55:10;16.70;99.90
18041;DHT22;9145;48.588;9.250;2022-08-21T06:57:36;16.90;99.90
18041;DHT22;9145;48.588;9.250;2022-08-21T07:00:05;17.00;99.90
18041;DHT22;9145;48.588;9.250;2022-08-21T07:02:32;17.10;99.90
18041;DHT22;9145;48.588;9.250;2022-08-21T07:05:01;17.20;99.90
18041;DHT22;9145;48.588;9.250;2022-08-21T07:07:28;17.30;99.90
18041;DHT22;9145;48.588;9.250;2022-08-21T07:09:55;17.40;99.90
18041;DHT22;9145;48.588;9.250;2022-08-21T07:12:22;17.50;99.90
18041;DHT22;9145;48.588;9.250;2022-08-21T07:14:49;17.60;99.90
18041;DHT22;9145;48.588;9.250;2022-08-21T07:17:15;17.70;99.90
18041;DHT22;9145;48.588;9.250;2022-08-21T07:19:42;17.80;99.90
18041;DHT22;9145;48.588;9.250;2022-08-21T07:22:11;17.80;99.90
18041;DHT22;9145;48.588;9.250;2022-08-21T07:24:38;17.90;99.90
18041;DHT22;9145;48.588;9.250;2022-08-21T07:27:05;18.00;99.90
18041;DHT22;9145;48.588;9.250;2022-08-21T07:29:32;18.10;99.90
18041;DHT22;9145;48.588;9.250;2022-08-21T07:31:59;18.20;99.90
18041;DHT22;9145;48.588;9.250;2022-08-21T07:34:25;18.30;99.90
18041;DHT22;9145;48.588;9.250;2022-08-21T07:36:52;18.40;99.90
18041;DHT22;9145;48.588;9.250;2022-08-21T07:39:20;18.40;99.90
18041;DHT22;9145;48.588;9.250;2022-08-21T07:41:47;18.50;99.90
18041;DHT22;9145;48.588;9.250;2022-08-21T07:44:14;18.60;99.90
18041;DHT22;9145;48.588;9.250;2022-08-21T07:46:41;18.80;99.90
18041;DHT22;9145;48.588;9.250;2022-08-21T07:49:08;18.90;99.90
18041;DHT22;9145;48.588;9.250;2022-08-21T07:51:35;19.00;99.90
18041;DHT22;9145;48.588;9.250;2022-08-21T07:54:02;19.00;99.90
18041;DHT22;9145;48.588;9.250;2022-08-21T07:56:31;19.00;99.90
18041;DHT22;9145;48.588;9.250;2022-08-21T07:58:58;19.00;99.90
18041;DHT22;9145;48.588;9.250;2022-08-21T08:01:25;19.20;99.90
18041;DHT22;9145;48.588;9.250;2022-08-21T08:03:51;19.20;99.90
18041;DHT22;9145;48.588;9.250;2022-08-21T08:06:18;19.30;99.90
18041;DHT22;9145;48.588;9.250;2022-08-21T08:08:45;19.40;99.90
18041;DHT22;9145;48.588;9.250;2022-08-21T08:11:13;19.50;99.90
18041;DHT22;9145;48.588;9.250;2022-08-21T08:13:44;19.70;99.90
18041;DHT22;9145;48.588;9.250;2022-08-21T08:16:12;19.80;99.90
18041;DHT22;9145;48.588;9.250;2022-08-21T08:18:39;19.90;99.90
18041;DHT22;9145;48.588;9.250;2022-08-21T08:21:06;20.10;99.90
18041;DHT22;9145;48.588;9.250;2022-08-21T08:23:33;20.10;99.90
18041;DHT22;9145;48.588;9.250;2022-08-21T08:26:01;20.20;99.90
18041;DHT22;9145;48.588;9.250;2022-08-21T08:28:29;20.30;99.90
18041;DHT22;9145;48.588;9.250;2022-08-21T08:30:59;20.40;99.90
18041;DHT22;9145;48.588;9.250;2022-08-21T08:33:26;20.50;99.90
18041;DHT22;9145;48.588;9.250;2022-08-21T08:35:53;20.50;99.90
18041;DHT22;9145;48.588;9.250;2022-08-21T08:38:22;20.60;99.90
18041;DHT22;9145;48.588;9.250;2022-08-21T08:40:53;20.80;99.90
18041;DHT22;9145;48.588;9.250;2022-08-21T08:43:22;20.80;99.90
18041;DHT22;9145;48.588;9.250;2022-08-21T08:45:50;21.00;99.90
18041;DHT22;9145;48.588;9.250;2022-08-21T08:48:34;21.00;99.90
18041;DHT22;9145;48.588;9.250;2022-08-21T08:51:06;21.10;99.90
18041;DHT22;9145;48.588;9.250;2022-08-21T08:53:41;21.30;99.90
18041;DHT22;9145;48.588;9.250;2022-08-21T08:56:11;21.20;99.90
18041;DHT22;9145;48.588;9.250;2022-08-21T08:58:41;21.30;99.90
18041;DHT22;9145;48.588;9.250;2022-08-21T09:01:16;21.50;99.90
18041;DHT22;9145;48.588;9.250;2022-08-21T09:03:45;21.60;99.90
18041;DHT22;9145;48.588;9.250;2022-08-21T09:06:23;21.80;99.90
18041;DHT22;9145;48.588;9.250;2022-08-21T09:08:59;21.90;99.90
18041;DHT22;9145;48.588;9.250;2022-08-21T09:11:32;22.00;99.90
18041;DHT22;9145;48.588;9.250;2022-08-21T09:14:08;22.30;99.90
18041;DHT22;9145;48.588;9.250;2022-08-21T09:16:42;22.60;99.90
18041;DHT22;9145;48.588;9.250;2022-08-21T09:19:34;22.80;99.90
18041;DHT22;9145;48.588;9.250;2022-08-21T09:22:08;23.10;99.90
18041;DHT22;9145;48.588;9.250;2022-08-21T09:24:46;23.30;99.90
18041;DHT22;9145;48.588;9.250;2022-08-21T09:27:18;23.20;99.90
18041;DHT22;9145;48.588;9.250;2022-08-21T09:29:48;23.30;99.90
18041;DHT22;9145;48.588;9.250;2022-08-21T09:32:18;23.40;99.90
18041;DHT22;9145;48.588;9.250;2022-08-21T09:34:58;23.60;99.90
18041;DHT22;9145;48.588;9.250;2022-08-21T09:37:26;23.90;99.90
18041;DHT22;9145;48.588;9.250;2022-08-21T09:39:55;23.90;99.90
18041;DHT22;9145;48.588;9.250;2022-08-21T09:42:25;23.70;99.90
18041;DHT22;9145;48.588;9.250;2022-08-21T09:45:08;23.80;99.90
18041;DHT22;9145;48.588;9.250;2022-08-21T09:47:35;24.00;99.90
18041;DHT22;9145;48.588;9.250;2022-08-21T09:50:13;24.00;99.90
18041;DHT22;9145;48.588;9.250;2022-08-21T09:52:45;24.00;99.90
18041;DHT22;9145;48.588;9.250;2022-08-21T09:55:18;24.10;99.90
18041;DHT22;9145;48.588;9.250;2022-08-21T09:58:00;24.30;99.90
18041;DHT22;9145;48.588;9.250;2022-08-21T10:00:30;24.20;99.90
18041;DHT22;9145;48.588;9.250;2022-08-21T10:03:09;24.30;99.90
18041;DHT22;9145;48.588;9.250;2022-08-21T10:05:39;24.50;99.90
18041;DHT22;9145;48.588;9.250;2022-08-21T10:08:17;24.60;99.90
18041;DHT22;9145;48.588;9.250;2022-08-21T10:10:44;24.70;99.90
18041;DHT22;9145;48.588;9.250;2022-08-21T10:13:13;24.90;99.90
18041;DHT22;9145;48.588;9.250;2022-08-21T10:15:49;25.10;99.90
18041;DHT22;9145;48.588;9.250;2022-08-21T10:18:24;25.20;99.90
18041;DHT22;9145;48.588;9.250;2022-08-21T10:21:00;25.30;99.90
18041;DHT22;9145;48.588;9.250;2022-08-21T10:23:42;25.30;99.90
18041;DHT22;9145;48.588;9.250;2022-08-21T10:26:20;25.20;99.90
18041;DHT22;9145;48.588;9.250;2022-08-21T10:29:01;25.20;99.90
18041;DHT22;9145;48.588;9.250;2022-08-21T10:31:35;25.20;99.90
18041;DHT22;9145;48.588;9.250;2022-08-21T10:34:18;25.30;99.90
18041;DHT22;9145;48.588;9.250;2022-08-21T10:37:01;25.30;99.90
18041;DHT22;9145;48.588;9.250;2022-08-21T10:39:34;25.30;99.90
18041;DHT22;9145;48.588;9.250;2022-08-21T10:42:12;25.20;99.90
18041;DHT22;9145;48.588;9.250;2022-08-21T10:44:49;25.50;99.90
18041;DHT22;9145;48.588;9.250;2022-08-21T10:47:27;25.50;99.90
18041;DHT22;9145;48.588;9.250;2022-08-21T10:50:02;25.50;99.90
18041;DHT22;9145;48.588;9.250;2022-08-21T10:52:41;25.70;99.80
18041;DHT22;9145;48.588;9.250;2022-08-21T10:55:12;25.60;99.90
18041;DHT22;9145;48.588;9.250;2022-08-21T10:57:46;25.40;99.90
18041;DHT22;9145;48.588;9.250;2022-08-21T11:00:17;25.70;99.90
18041;DHT22;9145;48.588;9.250;2022-08-21T11:02:50;26.00;99.90
18041;DHT22;9145;48.588;9.250;2022-08-21T11:05:24;26.20;99.00
18041;DHT22;9145;48.588;9.250;2022-08-21T11:07:55;26.40;99.90
18041;DHT22;9145;48.588;9.250;2022-08-21T11:10:26;26.80;99.90
18041;DHT22;9145;48.588;9.250;2022-08-21T11:12:56;27.00;98.20
18041;DHT22;9145;48.588;9.250;2022-08-21T11:15:38;27.10;97.80
18041;DHT22;9145;48.588;9.250;2022-08-21T11:18:18;27.20;97.50
18041;DHT22;9145;48.588;9.250;2022-08-21T11:20:52;27.30;97.90
18041;DHT22;9145;48.588;9.250;2022-08-21T11:23:28;27.30;98.40
18041;DHT22;9145;48.588;9.250;2022-08-21T11:26:02;27.20;96.00
18041;DHT22;9145;48.588;9.250;2022-08-21T11:28:33;27.10;96.90
18041;DHT22;9145;48.588;9.250;2022-08-21T11:31:07;27.10;97.90
18041;DHT22;9145;48.588;9.250;2022-08-21T11:33:48;27.00;96.80
18041;DHT22;9145;48.588;9.250;2022-08-21T11:36:27;26.80;96.70
18041;DHT22;9145;48.588;9.250;2022-08-21T11:39:06;26.70;97.70
18041;DHT22;9145;48.588;9.250;2022-08-21T11:41:42;26.70;98.10
18041;DHT22;9145;48.588;9.250;2022-08-21T11:44:17;26.70;98.70
18041;DHT22;9145;48.588;9.250;2022-08-21T11:46:49;26.90;99.30
18041;DHT22;9145;48.588;9.250;2022-08-21T11:49:28;27.00;96.80
18041;DHT22;9145;48.588;9.250;2022-08-21T11:52:05;27.10;95.80
18041;DHT22;9145;48.588;9.250;2022-08-21T11:54:38;27.50;97.00
18041;DHT22;9145;48.588;9.250;2022-08-21T11:57:13;27.50;96.00
18041;DHT22;9145;48.588;9.250;2022-08-21T11:59:44;27.60;94.90
18041;DHT22;9145;48.588;9.250;2022-08-21T12:02:14;27.50;94.20
18041;DHT22;9145;48.588;9.250;2022-08-21T12:04:47;27.20;94.00
18041;DHT22;9145;48.588;9.250;2022-08-21T12:07:27;27.10;95.30
18041;DHT22;9145;48.588;9.250;2022-08-21T12:09:57;27.00;93.60
18041;DHT22;9145;48.588;9.250;2022-08-21T12:12:26;27.00;94.40
18041;DHT22;9145;48.588;9.250;2022-08-21T12:15:23;27.40;95.20
18041;DHT22;9145;48.588;9.250;2022-08-21T12:17:57;27.70;95.00
18041;DHT22;9145;48.588;9.250;2022-08-21T12:20:37;28.20;95.10
18041;DHT22;9145;48.588;9.250;2022-08-21T12:23:14;28.40;89.30
18041;DHT22;9145;48.588;9.250;2022-08-21T12:25:48;28.30;89.90
18041;DHT22;9145;48.588;9.250;2022-08-21T12:28:25;28.30;92.00
18041;DHT22;9145;48.588;9.250;2022-08-21T12:30:52;28.10;93.10
18041;DHT22;9145;48.588;9.250;2022-08-21T12:33:23;27.80;91.90
18041;DHT22;9145;48.588;9.250;2022-08-21T12:35:52;27.80;91.40
18041;DHT22;9145;48.588;9.250;2022-08-21T12:38:22;27.80;91.60
18041;DHT22;9145;48.588;9.250;2022-08-21T12:40:55;27.90;92.30
18041;DHT22;9145;48.588;9.250;2022-08-21T12:43:27;27.70;91.70
18041;DHT22;9145;48.588;9.250;2022-08-21T12:45:55;27.80;93.30
18041;DHT22;9145;48.588;9.250;2022-08-21T12:48:27;28.10;91.30
18041;DHT22;9145;48.588;9.250;2022-08-21T12:50:56;28.20;91.00
18041;DHT22;9145;48.588;9.250;2022-08-21T12:53:30;28.50;93.30
18041;DHT22;9145;48.588;9.250;2022-08-21T12:56:03;28.70;90.00
18041;DHT22;9145;48.588;9.250;2022-08-21T12:58:31;28.70;88.50
18041;DHT22;9145;48.588;9.250;2022-08-21T13:01:01;28.90;88.80
18041;DHT22;9145;48.588;9.250;2022-08-21T13:03:29;28.80;89.80
18041;DHT22;9145;48.588;9.250;2022-08-21T13:05:57;28.80;90.60
18041;DHT22;9145;48.588;9.250;2022-08-21T13:08:26;28.90;92.30
18041;DHT22;9145;48.588;9.250;2022-08-21T13:10:58;29.10;91.00
18041;DHT22;9145;48.588;9.250;2022-08-21T13:13:28;29.20;90.60
18041;DHT22;9145;48.588;9.250;2022-08-21T13:16:00;29.30;93.20
18041;DHT22;9145;48.588;9.250;2022-08-21T13:18:30;29.40;88.30
18041;DHT22;9145;48.588;9.250;2022-08-21T13:21:05;29.40;91.20
18041;DHT22;9145;48.588;9.250;2022-08-21T13:23:33;29.70;89.90
18041;DHT22;9145;48.588;9.250;2022-08-21T13:26:00;29.90;86.10
18041;DHT22;9145;48.588;9.250;2022-08-21T13:28:34;29.50;86.50
18041;DHT22;9145;48.588;9.250;2022-08-21T13:31:06;29.40;85.40
18041;DHT22;9145;48.588;9.250;2022-08-21T13:33:34;29.60;87.90
18041;DHT22;9145;48.588;9.250;2022-08-21T13:36:05;29.70;89.10
18041;DHT22;9145;48.588;9.250;2022-08-21T13:38:35;29.90;90.20
18041;DHT22;9145;48.588;9.250;2022-08-21T13:41:06;30.00;86.50
18041;DHT22;9145;48.588;9.250;2022-08-21T13:43:37;29.60;83.70
18041;DHT22;9145;48.588;9.250;2022-08-21T13:46:09;29.50;89.00
18041;DHT22;9145;48.588;9.250;2022-08-21T13:48:36;29.70;86.90
18041;DHT22;9145;48.588;9.250;2022-08-21T13:51:04;29.80;85.40
18041;DHT22;9145;48.588;9.250;2022-08-21T13:53:34;29.90;85.80
18041;DHT22;9145;48.588;9.250;2022-08-21T13:56:03;30.00;87.50
18041;DHT22;9145;48.588;9.250;2022-08-21T13:58:43;30.60;90.40
18041;DHT22;9145;48.588;9.250;2022-08-21T14:01:19;31.00;84.60
18041;DHT22;9145;48.588;9.250;2022-08-21T14:03:49;31.60;86.30
18041;DHT22;9145;48.588;9.250;2022-08-21T14:06:18;31.70;86.50
18041;DHT22;9145;48.588;9.250;2022-08-21T14:08:50;31.60;83.70
18041;DHT22;9145;48.588;9.250;2022-08-21T14:11:18;31.60;81.30
18041;DHT22;9145;48.588;9.250;2022-08-21T14:13:47;32.00;83.00
18041;DHT22;9145;48.588;9.250;2022-08-21T14:16:19;32.40;81.40
18041;DHT22;9145;48.588;9.250;2022-08-21T14:18:50;32.80;78.50
18041;DHT22;9145;48.588;9.250;2022-08-21T14:21:27;32.80;81.40
18041;DHT22;9145;48.588;9.250;2022-08-21T14:24:07;33.00;79.80
18041;DHT22;9145;48.588;9.250;2022-08-21T14:26:37;33.10;77.30
18041;DHT22;9145;48.588;9.250;2022-08-21T14:29:11;32.60;74.00
18041;DHT22;9145;48.588;9.250;2022-08-21T14:31:41;32.40;75.80
18041;DHT22;9145;48.588;9.250;2022-08-21T14:34:10;32.60;80.00
18041;DHT22;9145;48.588;9.250;2022-08-21T14:36:37;32.70;74.40
18041;DHT22;9145;48.588;9.250;2022-08-21T14:39:04;32.40;73.80
18041;DHT22;9145;48.588;9.250;2022-08-21T14:41:31;32.30;76.70
18041;DHT22;9145;48.588;9.250;2022-08-21T14:43:58;32.70;74.20
18041;DHT22;9145;48.588;9.250;2022-08-21T14:46:27;32.50;75.60
18041;DHT22;9145;48.588;9.250;2022-08-21T14:48:56;32.20;75.50
18041;DHT22;9145;48.588;9.250;2022-08-21T14:51:23;32.10;74.20
18041;DHT22;9145;48.588;9.250;2022-08-21T14:53:50;32.40;78.90
18041;DHT22;9145;48.588;9.250;2022-08-21T14:56:17;32.80;74.10
18041;DHT22;9145;48.588;9.250;2022-08-21T14:58:47;33.00;79.30
18041;DHT22;9145;48.588;9.250;2022-08-21T15:01:16;33.40;77.10
18041;DHT22;9145;48.588;9.250;2022-08-21T15:03:44;33.90;72.60
18041;DHT22;9145;48.588;9.250;2022-08-21T15:06:13;34.00;74.00
18041;DHT22;9145;48.588;9.250;2022-08-21T15:08:39;34.30;73.80
18041;DHT22;9145;48.588;9.250;2022-08-21T15:11:07;34.20;70.40
18041;DHT22;9145;48.588;9.250;2022-08-21T15:13:36;33.90;72.60
18041;DHT22;9145;48.588;9.250;2022-08-21T15:16:03;34.00;74.50
18041;DHT22;9145;48.588;9.250;2022-08-21T15:18:30;33.60;71.00
18041;DHT22;9145;48.588;9.250;2022-08-21T15:20:57;33.60;71.20
18041;DHT22;9145;48.588;9.250;2022-08-21T15:23:26;33.50;74.50
18041;DHT22;9145;48.588;9.250;2022-08-21T15:25:53;33.90;74.50
18041;DHT22;9145;48.588;9.250;2022-08-21T15:28:24;34.10;74.10
18041;DHT22;9145;48.588;9.250;2022-08-21T15:30:51;34.20;73.50
18041;DHT22;9145;48.588;9.250;2022-08-21T15:33:18;34.00;71.60
18041;DHT22;9145;48.588;9.250;2022-08-21T15:35:45;33.80;71.00
18041;DHT22;9145;48.588;9.250;2022-08-21T15:38:12;33.90;72.60
18041;DHT22;9145;48.588;9.250;2022-08-21T15:40:42;34.10;74.00
18041;DHT22;9145;48.588;9.250;2022-08-21T15:43:23;34.40;71.80
18041;DHT22;9145;48.588;9.250;2022-08-21T15:45:51;34.10;68.50
18041;DHT22;9145;48.588;9.250;2022-08-21T15:48:18;33.90;69.40
18041;DHT22;9145;48.588;9.250;2022-08-21T15:50:45;34.30;72.40
18041;DHT22;9145;48.588;9.250;2022-08-21T15:53:12;34.50;72.20
18041;DHT22;9145;48.588;9.250;2022-08-21T15:55:40;34.10;68.90
18041;DHT22;9145;48.588;9.250;2022-08-21T15:58:12;33.80;68.40
18041;DHT22;9145;48.588;9.250;2022-08-21T16:00:39;33.60;67.80